createdAt,value
2022-08-23T00:01:28.405Z,23.20
2022-08-23T00:04:21.482Z,23.20
2022-08-23T00:07:10.683Z,23.20
2022-08-23T00:09:56.529Z,23.20
2022-08-23T00:12:45.683Z,23.20
2022-08-23T00:15:31.497Z,23.20
2022-08-23T00:18:18.327Z,23.20
2022-08-23T00:21:04.382Z,23.00
2022-08-23T00:23:51.104Z,23.00
2022-08-23T00:26:49.663Z,23.00
2022-08-23T00:29:41.566Z,23.00
2022-08-23T00:32:31.876Z,23.00
2022-08-23T00:35:27.204Z,23.00
2022-08-23T00:38:33.355Z,22.90
2022-08-23T00:41:19.267Z,22.90
2022-08-23T00:44:24.950Z,22.90
2022-08-23T00:47:33.083Z,22.90
2022-08-23T00:50:42.532Z,22.80
2022-08-23T00:53:34.032Z,22.80
2022-08-23T00:56:22.753Z,22.80
2022-08-23T00:59:09.395Z,22.70
2022-08-23T01:01:56.161Z,22.70
2022-08-23T01:04:45.233Z,22.70
2022-08-23T01:07:39.016Z,22.40
2022-08-23T01:10:37.509Z,22.50
2022-08-23T01:13:30.174Z,22.50
2022-08-23T01:16:36.937Z,22.40
2022-08-23T01:19:32.962Z,22.40
2022-08-23T01:22:36.416Z,22.40
2022-08-23T01:25:23.849Z,22.40
2022-08-23T01:28:09.516Z,22.40
2022-08-23T01:30:55.791Z,22.40
2022-08-23T01:33:42.501Z,22.40
2022-08-23T01:36:29.993Z,22.30
2022-08-23T01:39:15.871Z,22.40
2022-08-23T01:42:02.207Z,22.40
2022-08-23T01:44:53.708Z,22.40
2022-08-23T01:47:41.065Z,22.50
2022-08-23T01:50:29.084Z,22.50
2022-08-23T01:53:15.802Z,22.50
2022-08-23T01:56:07.398Z,22.40
2022-08-23T01:58:55.389Z,22.00
2022-08-23T02:01:44.290Z,22.40
2022-08-23T02:04:30.509Z,22.40
2022-08-23T02:07:16.472Z,22.40
2022-08-23T02:10:02.646Z,22.40
2022-08-23T02:12:49.689Z,22.40
2022-08-23T02:15:36.300Z,22.10
2022-08-23T02:18:22.628Z,22.30
2022-08-23T02:21:10.340Z,22.10
2022-08-23T02:23:58.060Z,22.00
2022-08-23T02:26:49.643Z,22.20
2022-08-23T02:29:45.187Z,22.50
2022-08-23T02:35:18.353Z,22.10
2022-08-23T02:38:08.928Z,21.90
2022-08-23T02:41:01.063Z,22.00
2022-08-23T02:43:52.648Z,22.00
2022-08-23T02:46:40.654Z,22.00
2022-08-23T02:49:26.590Z,22.00
2022-08-23T02:52:12.632Z,21.90
2022-08-23T02:54:58.518Z,21.90
2022-08-23T02:57:44.623Z,22.60
2022-08-23T03:00:32.566Z,21.70
2022-08-23T03:03:19.060Z,21.60
2022-08-23T03:06:25.536Z,21.80
2022-08-23T03:09:12.480Z,23.10
2022-08-23T03:11:58.132Z,21.80
2022-08-23T03:14:43.944Z,21.80
2022-08-23T03:17:29.853Z,21.80
2022-08-23T03:20:16.282Z,21.80
2022-08-23T03:23:02.294Z,21.40
2022-08-23T03:25:48.586Z,21.70
2022-08-23T03:28:44.656Z,21.60
2022-08-23T03:31:31.834Z,21.70
2022-08-23T03:34:25.738Z,21.60
2022-08-23T03:37:12.411Z,21.70
2022-08-23T03:39:58.399Z,21.60
2022-08-23T03:42:44.051Z,21.50
2022-08-23T03:45:31.114Z,21.50
2022-08-23T03:48:17.525Z,21.50
2022-08-23T03:51:04.750Z,21.60
2022-08-23T03:53:50.739Z,21.60
2022-08-23T03:56:41.748Z,21.70
2022-08-23T03:59:29.181Z,21.50
2022-08-23T04:02:16.702Z,21.40
2022-08-23T04:05:02.770Z,21.90
2022-08-23T04:08:33.693Z,21.70
2022-08-23T04:11:22.489Z,21.00
2022-08-23T04:14:15.907Z,21.30
2022-08-23T04:17:01.539Z,21.30
2022-08-23T04:19:48.308Z,21.20
2022-08-23T04:22:35.018Z,21.60
2022-08-23T04:25:34.295Z,21.20
2022-08-23T04:28:23.809Z,21.50
2022-08-23T04:31:09.975Z,21.20
2022-08-23T04:33:59.060Z,21.10
2022-08-23T04:36:51.800Z,21.50
2022-08-23T04:42:52.812Z,21.30
2022-08-23T04:45:39.761Z,21.20
2022-08-23T04:48:29.545Z,21.30
2022-08-23T04:51:15.973Z,21.20
2022-08-23T04:54:02.685Z,21.20
2022-08-23T04:56:54.964Z,22.40
2022-08-23T04:59:41.653Z,21.20
2022-08-23T05:02:27.914Z,21.10
2022-08-23T05:05:15.448Z,21.20
2022-08-23T05:08:04.034Z,21.50
2022-08-23T05:10:49.910Z,22.00
2022-08-23T05:13:36.312Z,22.30
2022-08-23T05:16:23.415Z,22.30
2022-08-23T05:19:18.358Z,22.80
2022-08-23T05:22:06.251Z,23.40
2022-08-23T05:25:16.533Z,24.60
2022-08-23T05:28:03.404Z,25.20
2022-08-23T05:31:04.638Z,24.80
2022-08-23T05:33:58.718Z,25.60
2022-08-23T05:36:57.341Z,25.30
2022-08-23T05:39:48.777Z,25.30
2022-08-23T05:42:34.482Z,25.40
2022-08-23T05:45:21.910Z,25.70
2022-08-23T05:48:08.370Z,25.60
2022-08-23T05:51:24.161Z,25.70
2022-08-23T05:56:56.641Z,25.40
2022-08-23T05:59:42.328Z,25.10
2022-08-23T06:02:27.901Z,25.00
2022-08-23T06:05:13.879Z,25.00
2022-08-23T06:08:00.783Z,24.80
2022-08-23T06:10:46.698Z,25.10
2022-08-23T06:13:47.472Z,25.00
2022-08-23T06:16:36.756Z,25.10
2022-08-23T06:22:08.813Z,24.40
2022-08-23T06:24:59.336Z,25.30
2022-08-23T06:28:12.320Z,25.50
2022-08-23T06:31:01.207Z,25.70
2022-08-23T06:33:53.436Z,25.80
2022-08-23T06:36:56.970Z,25.80
2022-08-23T06:40:09.264Z,26.90
2022-08-23T06:43:18.704Z,26.10
2022-08-23T06:46:28.255Z,26.10
2022-08-23T06:49:16.416Z,26.50
2022-08-23T06:52:06.632Z,26.90
2022-08-23T06:55:21.421Z,27.00
2022-08-23T06:58:23.429Z,27.00
2022-08-23T07:01:50.199Z,27.20
2022-08-23T07:04:43.527Z,27.50
2022-08-23T07:10:34.377Z,28.00
2022-08-23T07:13:20.188Z,28.10
2022-08-23T07:16:07.033Z,27.90
2022-08-23T07:18:55.460Z,28.00
2022-08-23T07:21:41.709Z,28.20
2022-08-23T07:24:32.882Z,28.30
2022-08-23T07:27:20.211Z,28.40
2022-08-23T07:30:26.219Z,28.40
2022-08-23T07:33:12.623Z,28.60
2022-08-23T07:36:20.756Z,28.80
2022-08-23T07:39:08.290Z,29.20
2022-08-23T07:44:41.370Z,29.70
2022-08-23T07:47:29.730Z,28.60
2022-08-23T07:50:17.193Z,29.60
2022-08-23T07:53:04.071Z,29.60
2022-08-23T07:55:51.171Z,29.60
2022-08-23T07:59:01.608Z,29.80
2022-08-23T08:02:19.701Z,30.40
2022-08-23T08:05:05.904Z,30.40
2022-08-23T08:07:52.106Z,29.60
2022-08-23T08:10:42.137Z,29.80
2022-08-23T08:13:27.926Z,29.80
2022-08-23T08:16:24.168Z,30.30
2022-08-23T08:19:15.082Z,30.40
2022-08-23T08:22:20.456Z,30.70
2022-08-23T08:25:26.434Z,30.90
2022-08-23T08:28:15.971Z,30.10
2022-08-23T08:31:02.976Z,31.20
2022-08-23T08:33:50.032Z,30.80
2022-08-23T08:36:42.521Z,30.90
2022-08-23T08:39:34.778Z,31.00
2022-08-23T08:42:38.483Z,31.20
2022-08-23T08:45:32.573Z,32.00
2022-08-23T08:48:23.845Z,31.90
2022-08-23T08:51:26.368Z,31.70
2022-08-23T08:54:17.412Z,32.00
2022-08-23T08:57:07.741Z,31.70
2022-08-23T09:00:14.887Z,31.40
2022-08-23T09:03:09.603Z,31.60
2022-08-23T09:06:01.213Z,32.70
2022-08-23T09:09:02.206Z,31.80
2022-08-23T09:12:04.506Z,32.00
2022-08-23T09:15:21.026Z,31.60
2022-08-23T09:18:15.682Z,31.30
2022-08-23T09:21:06.800Z,31.40
2022-08-23T09:24:00.748Z,31.20
2022-08-23T09:27:10.070Z,31.40
2022-08-23T09:29:58.671Z,31.30
2022-08-23T09:32:49.268Z,31.40
2022-08-23T09:35:36.659Z,31.30
2022-08-23T09:38:26.929Z,31.20
2022-08-23T09:41:22.345Z,31.00
2022-08-23T09:44:29.561Z,30.80
2022-08-23T09:47:17.674Z,30.40
2022-08-23T09:50:26.365Z,30.50
2022-08-23T09:53:14.804Z,30.40
2022-08-23T09:56:24.609Z,30.60
2022-08-23T09:59:26.815Z,30.70
2022-08-23T10:02:22.195Z,30.90
2022-08-23T10:05:27.828Z,30.60
2022-08-23T10:08:29.735Z,30.90
2022-08-23T10:11:29.804Z,29.80
2022-08-23T10:14:18.463Z,30.10
2022-08-23T10:17:14.608Z,30.10
2022-08-23T10:20:29.105Z,30.70
2022-08-23T10:23:43.797Z,29.90
2022-08-23T10:26:32.994Z,30.10
2022-08-23T10:29:38.262Z,30.00
2022-08-23T10:32:50.982Z,30.10
2022-08-23T10:35:52.649Z,30.20
2022-08-23T10:39:03.674Z,29.80
2022-08-23T10:42:22.134Z,30.00
2022-08-23T10:45:16.532Z,30.00
2022-08-23T10:48:31.985Z,29.60
2022-08-23T10:51:31.856Z,29.00
2022-08-23T10:54:59.482Z,29.70
2022-08-23T10:57:49.001Z,29.50
2022-08-23T11:00:37.158Z,29.40
2022-08-23T11:03:41.903Z,30.00
2022-08-23T11:06:37.086Z,29.90
2022-08-23T11:09:26.593Z,30.00
2022-08-23T11:12:30.977Z,29.80
2022-08-23T11:15:24.066Z,29.90
2022-08-23T11:18:39.260Z,29.70
2022-08-23T11:21:25.637Z,29.50
2022-08-23T11:24:16.453Z,29.50
2022-08-23T11:27:07.103Z,29.60
2022-08-23T11:30:37.936Z,29.80
2022-08-23T11:33:36.625Z,29.70
2022-08-23T11:36:25.392Z,30.00
2022-08-23T11:39:21.626Z,29.70
2022-08-23T11:42:19.348Z,29.80
2022-08-23T11:45:22.888Z,29.90
2022-08-23T11:48:36.067Z,29.40
2022-08-23T11:51:24.725Z,30.20
2022-08-23T11:54:16.689Z,30.00
2022-08-23T11:57:24.655Z,29.80
2022-08-23T12:00:28.627Z,30.20
2022-08-23T12:03:36.614Z,30.00
2022-08-23T12:06:22.505Z,30.20
2022-08-23T12:09:16.093Z,30.30
2022-08-23T12:12:02.187Z,30.20
2022-08-23T12:14:52.498Z,30.10
2022-08-23T12:17:41.003Z,30.30
2022-08-23T12:20:31.177Z,30.70
2022-08-23T12:23:20.401Z,30.20
2022-08-23T12:26:21.036Z,30.40
2022-08-23T12:29:17.638Z,30.70
2022-08-23T12:32:19.720Z,30.60
2022-08-23T12:35:23.713Z,30.50
2022-08-23T12:38:33.752Z,30.50
2022-08-23T12:41:30.601Z,30.00
2022-08-23T12:44:22.656Z,30.60
2022-08-23T12:47:27.080Z,30.40
2022-08-23T12:50:15.755Z,31.00
2022-08-23T12:53:05.442Z,29.70
2022-08-23T12:55:58.774Z,30.50
2022-08-23T12:58:52.321Z,30.40
2022-08-23T13:01:42.013Z,30.80
2022-08-23T13:04:28.753Z,30.80
2022-08-23T13:07:21.640Z,30.70
2022-08-23T13:10:10.417Z,30.80
2022-08-23T13:12:56.730Z,30.80
2022-08-23T13:16:26.882Z,30.90
2022-08-23T13:19:18.265Z,31.00
2022-08-23T13:22:22.180Z,31.00
2022-08-23T13:25:32.475Z,30.80
2022-08-23T13:28:28.417Z,30.90
2022-08-23T13:31:15.320Z,30.30
2022-08-23T13:34:01.158Z,30.80
2022-08-23T13:36:52.197Z,30.80
2022-08-23T13:39:38.116Z,30.50
2022-08-23T13:42:29.628Z,30.20
2022-08-23T13:45:21.863Z,30.60
2022-08-23T13:48:30.392Z,30.60
2022-08-23T13:51:32.912Z,30.30
2022-08-23T13:54:18.634Z,30.60
2022-08-23T13:57:11.767Z,30.80
2022-08-23T13:59:59.111Z,30.50
2022-08-23T14:02:48.846Z,30.70
2022-08-23T14:05:35.290Z,31.00
2022-08-23T14:08:21.071Z,30.80
2022-08-23T14:11:07.094Z,30.70
2022-08-23T14:13:52.812Z,30.70
2022-08-23T14:16:40.005Z,30.90
2022-08-23T14:22:32.240Z,30.50
2022-08-23T14:25:18.447Z,30.60
2022-08-23T14:28:04.115Z,30.60
2022-08-23T14:31:03.873Z,30.80
2022-08-23T14:33:54.726Z,30.50
2022-08-23T14:39:51.273Z,30.40
2022-08-23T14:42:37.105Z,30.70
2022-08-23T14:45:23.557Z,30.80
2022-08-23T14:48:09.522Z,30.30
2022-08-23T14:50:55.916Z,31.40
2022-08-23T14:53:41.865Z,30.40
2022-08-23T14:56:28.078Z,30.00
2022-08-23T14:59:14.388Z,30.50
2022-08-23T15:02:00.908Z,30.90
2022-08-23T15:04:46.593Z,30.00
2022-08-23T15:07:32.515Z,30.90
2022-08-23T15:13:30.019Z,30.40
2022-08-23T15:16:19.956Z,30.10
2022-08-23T15:21:52.386Z,30.50
2022-08-23T15:24:39.352Z,30.40
2022-08-23T15:27:25.979Z,30.50
2022-08-23T15:30:16.970Z,30.60
2022-08-23T15:33:03.304Z,30.20
2022-08-23T15:35:54.443Z,30.80
2022-08-23T15:38:42.227Z,30.50
2022-08-23T15:41:28.294Z,30.30
2022-08-23T15:44:15.193Z,30.80
2022-08-23T15:47:18.132Z,30.40
2022-08-23T15:50:04.709Z,30.70
2022-08-23T15:52:51.326Z,31.10
2022-08-23T15:55:38.850Z,30.40
2022-08-23T15:58:26.981Z,30.30
2022-08-23T16:01:13.514Z,30.50
2022-08-23T16:04:02.100Z,30.60
2022-08-23T16:06:48.250Z,30.40
2022-08-23T16:09:34.897Z,30.40
2022-08-23T16:12:20.653Z,30.40
2022-08-23T16:15:07.207Z,29.90
2022-08-23T16:17:52.964Z,30.40
2022-08-23T16:20:39.581Z,30.30
2022-08-23T16:23:26.482Z,30.30
2022-08-23T16:26:22.681Z,30.40
2022-08-23T16:29:20.703Z,30.40
2022-08-23T16:32:07.665Z,30.20
2022-08-23T16:34:54.048Z,30.00
2022-08-23T16:37:40.305Z,29.50
2022-08-23T16:40:26.214Z,29.60
2022-08-23T16:43:12.024Z,30.20
2022-08-23T16:45:58.183Z,30.70
2022-08-23T16:48:45.324Z,29.90
2022-08-23T16:51:31.113Z,29.60
2022-08-23T16:54:19.412Z,29.90
2022-08-23T16:57:05.556Z,29.80
2022-08-23T16:59:51.642Z,29.90
2022-08-23T17:02:38.073Z,29.80
2022-08-23T17:05:24.191Z,29.80
2022-08-23T17:08:09.836Z,29.80
2022-08-23T17:10:57.991Z,29.80
2022-08-23T17:13:47.081Z,29.40
2022-08-23T17:16:32.973Z,29.50
2022-08-23T17:19:18.519Z,29.60
2022-08-23T17:22:04.213Z,28.80
2022-08-23T17:24:53.411Z,29.40
2022-08-23T17:27:45.471Z,29.30
2022-08-23T17:30:32.169Z,29.30
2022-08-23T17:36:05.141Z,29.20
2022-08-23T17:38:51.241Z,29.10
2022-08-23T17:41:38.054Z,29.00
2022-08-23T17:44:25.199Z,28.90
2022-08-23T17:47:16.545Z,28.90
2022-08-23T17:52:50.845Z,28.70
2022-08-23T17:55:37.102Z,28.70
2022-08-23T17:58:22.927Z,28.60
2022-08-23T18:01:11.979Z,28.60
2022-08-23T18:06:44.522Z,28.40
2022-08-23T18:09:30.760Z,28.30
2022-08-23T18:12:16.881Z,28.20
2022-08-23T18:17:49.978Z,28.10
2022-08-23T18:20:38.225Z,28.10
2022-08-23T18:23:24.072Z,28.00
2022-08-23T18:26:32.513Z,28.00
2022-08-23T18:29:19.244Z,28.00
2022-08-23T18:32:07.472Z,27.80
2022-08-23T18:34:53.269Z,27.90
2022-08-23T18:37:39.350Z,27.80
2022-08-23T18:40:27.280Z,27.70
2022-08-23T18:43:16.939Z,27.60
2022-08-23T18:46:02.682Z,27.60
2022-08-23T18:48:53.823Z,27.60
2022-08-23T18:51:41.526Z,27.40
2022-08-23T18:54:31.822Z,27.30
2022-08-23T18:57:19.747Z,27.30
2022-08-23T19:00:07.360Z,27.10
2022-08-23T19:02:53.201Z,27.10
2022-08-23T19:05:42.271Z,27.80
2022-08-23T19:08:28.778Z,26.90
2022-08-23T19:11:15.771Z,27.30
2022-08-23T19:14:02.167Z,26.90
2022-08-23T19:19:35.822Z,26.30
2022-08-23T19:22:21.648Z,26.60
2022-08-23T19:25:08.422Z,25.80
2022-08-23T19:27:54.139Z,25.70
2022-08-23T19:30:40.603Z,25.60
2022-08-23T19:39:20.552Z,26.00
2022-08-23T19:44:57.634Z,25.80
2022-08-23T19:47:43.444Z,25.90
2022-08-23T19:53:15.690Z,25.60
2022-08-23T19:56:02.345Z,25.40
2022-08-23T20:01:36.655Z,25.50
2022-08-23T20:04:24.510Z,25.40
2022-08-23T20:07:10.552Z,25.00
2022-08-23T20:09:56.516Z,25.80
2022-08-23T20:12:42.833Z,25.30
2022-08-23T20:15:29.505Z,25.90
2022-08-23T20:18:15.538Z,25.30
2022-08-23T20:21:01.991Z,26.10
2022-08-23T20:24:03.761Z,25.70
2022-08-23T20:26:50.989Z,25.30
2022-08-23T20:29:36.763Z,25.00
2022-08-23T20:32:22.560Z,24.90
2022-08-23T20:35:11.248Z,24.70
2022-08-23T20:37:57.546Z,25.30
2022-08-23T20:40:43.265Z,25.10
2022-08-23T20:43:29.049Z,24.90
2022-08-23T20:46:14.999Z,25.20
2022-08-23T20:49:00.946Z,24.40
2022-08-23T20:51:47.173Z,25.10
2022-08-23T20:54:33.518Z,25.00
2022-08-23T20:57:19.776Z,25.00
2022-08-23T21:00:07.813Z,24.90
2022-08-23T21:02:53.514Z,24.90
2022-08-23T21:05:39.677Z,24.80
2022-08-23T21:08:25.781Z,24.80
2022-08-23T21:11:11.754Z,24.90
2022-08-23T21:13:58.617Z,24.90
2022-08-23T21:16:46.160Z,24.90
2022-08-23T21:19:33.207Z,24.80
2022-08-23T21:22:18.977Z,24.80
2022-08-23T21:25:06.090Z,24.70
2022-08-23T21:27:51.889Z,24.70
2022-08-23T21:30:38.213Z,24.60
2022-08-23T21:33:25.648Z,24.60
2022-08-23T21:36:12.796Z,24.60
2022-08-23T21:38:58.341Z,24.60
2022-08-23T21:41:46.035Z,24.50
2022-08-23T21:44:31.686Z,24.40
2022-08-23T21:47:19.669Z,24.20
2022-08-23T21:50:07.118Z,24.30
2022-08-23T21:53:04.596Z,24.20
2022-08-23T21:55:50.545Z,23.90
2022-08-23T21:58:36.544Z,24.10
2022-08-23T22:01:22.503Z,24.20
2022-08-23T22:04:10.334Z,23.80
2022-08-23T22:06:56.188Z,23.80
2022-08-23T22:09:46.020Z,23.70
2022-08-23T22:12:33.537Z,23.60
2022-08-23T22:15:19.157Z,23.50
2022-08-23T22:18:05.992Z,23.50
2022-08-23T22:20:51.747Z,23.40
2022-08-23T22:23:41.883Z,23.30
2022-08-23T22:26:28.408Z,23.20
2022-08-23T22:29:14.451Z,23.10
2022-08-23T22:32:00.938Z,23.10
2022-08-23T22:34:47.252Z,23.00
2022-08-23T22:37:33.146Z,23.00
2022-08-23T22:40:19.441Z,23.00
2022-08-23T22:43:05.233Z,22.90
2022-08-23T22:45:53.630Z,22.80
2022-08-23T22:48:40.868Z,22.80
2022-08-23T22:51:30.201Z,22.80
2022-08-23T22:54:16.307Z,23.00
2022-08-23T22:57:01.942Z,22.70
2022-08-23T22:59:47.656Z,22.50
2022-08-23T23:02:36.301Z,22.40
2022-08-23T23:05:22.599Z,22.40
2022-08-23T23:08:26.753Z,22.40
2022-08-23T23:11:14.110Z,22.40
2022-08-23T23:14:00.089Z,22.40
2022-08-23T23:16:49.126Z,22.30
2022-08-23T23:19:53.693Z,22.20
2022-08-23T23:22:39.300Z,22.30
2022-08-23T23:25:25.286Z,22.20
2022-08-23T23:28:11.190Z,22.30
2022-08-23T23:30:59.286Z,22.30
2022-08-23T23:33:45.397Z,22.30
2022-08-23T23:36:31.388Z,22.20
2022-08-23T23:39:17.274Z,22.10
2022-08-23T23:42:03.182Z,22.00
2022-08-23T23:44:49.232Z,22.60
2022-08-23T23:47:35.246Z,21.90
2022-08-23T23:50:21.802Z,21.90
2022-08-23T23:53:07.321Z,21.80
2022-08-23T23:56:01.149Z,21.80
2022-08-23T23:58:47.609Z,21.70
